Robert (Bob) Curtis Memorial Airport

About
Name: Robert (Bob) Curtis Memorial Airport
Identifier:  ORV/PFNO
Serves:  Noorvik, Alaska
Owner:  State of Alaska DOT&PF - Northern Region
Public/Private:  Public
Local Time:  19. Aug 16:54 AKDT
Description: Robert Curtis Memorial Airport is a state-owned public-use airport located one nautical mile north of the central business district of Noorvik, a village in the Northwest Arctic Borough of the U.S. state of Alaska.[1]
Source: Wikipedia
Location
Runways
Identifier Length (m/ft) Surface
6/24 4,000/4,000 Gravel
Flights per Day
4 flights
Distance: 56km (34mi)
Punctuality
90% (0 flights per day delayed)
Delay Average: 120 minutes
Current Weather
 16 C (Humidity: 41%)
  6kt (11km/h / 6mph) from 40°
  16km (10 mi.)
 
 METAR PFNO 192356Z AUTO 04006KT 10SM CLR 16/03 A3005 RMK AO2 SLP175 6//// T01560028 10156 20089 56012 PNO $

Current Flights

Departures
Number Departure To Airline
 8E632 16:45 +9  Kotzebue Bering Air
Arrivals
Number Arrival From Airline

Current Delays

Departures
N/A
Arrivals
N/A

Destinations

Top Destinations
Airport Flights
per week
Seats
per week
  Kotzebue (OTZ) 1 8 0 1
  Kiana (IAN) 0 - 0 0

Airlines & Planes

Top Airlines
Airline Flights
per Day
Seats
per Day
Bering Air 0 -
  Era Alaska 0 1
Top Plane Types
Model Flights Seats
Beech B200 Super King Air 0.1/day - 0
Piper PA-31-350 0.1/day - 0
Cessna C208 0.0/day - 0
Bombardier Dash 8-100 0.0/day 1/day 1.2333333333333334